createdAt,value
2023-04-18T00:01:25.035Z,45.90
2023-04-18T00:03:52.791Z,45.85
2023-04-18T00:06:22.155Z,45.80
2023-04-18T00:08:49.764Z,45.88
2023-04-18T00:11:17.448Z,45.86
2023-04-18T00:13:47.255Z,45.89
2023-04-18T00:16:15.472Z,45.99
2023-04-18T00:18:43.071Z,45.88
2023-04-18T00:21:11.023Z,45.95
2023-04-18T00:23:39.654Z,45.93
2023-04-18T00:26:07.259Z,45.98
2023-04-18T00:28:35.018Z,46.09
2023-04-18T00:31:03.040Z,46.02
2023-04-18T00:33:33.930Z,45.97
2023-04-18T00:36:01.696Z,46.11
2023-04-18T00:38:29.319Z,46.05
2023-04-18T00:40:56.960Z,45.87
2023-04-18T00:43:24.745Z,46.00
2023-04-18T00:45:52.448Z,46.10
2023-04-18T00:48:20.955Z,45.94
2023-04-18T00:50:48.633Z,45.99
2023-04-18T00:53:16.474Z,46.04
2023-04-18T00:55:44.960Z,46.10
2023-04-18T00:58:12.546Z,45.95
2023-04-18T01:00:40.785Z,45.96
2023-04-18T01:03:08.690Z,46.04
2023-04-18T01:05:36.813Z,46.06
2023-04-18T01:08:05.401Z,46.00
2023-04-18T01:10:37.280Z,46.14
2023-04-18T01:13:17.137Z,45.99
2023-04-18T01:15:47.308Z,46.01
2023-04-18T01:18:19.276Z,46.22
2023-04-18T01:20:53.180Z,46.17
2023-04-18T01:23:21.240Z,46.37
2023-04-18T01:25:51.888Z,46.46
2023-04-18T01:28:23.751Z,46.33
2023-04-18T01:30:51.612Z,46.43
2023-04-18T01:33:19.235Z,46.52
2023-04-18T01:35:47.986Z,46.58
2023-04-18T01:38:15.567Z,46.53
2023-04-18T01:40:43.197Z,46.58
2023-04-18T01:43:10.817Z,46.60
2023-04-18T01:45:38.868Z,46.65
2023-04-18T01:48:06.878Z,46.62
2023-04-18T01:50:34.590Z,46.46
2023-04-18T01:53:02.240Z,46.69
2023-04-18T01:55:30.142Z,46.68
2023-04-18T01:57:57.958Z,46.68
2023-04-18T02:00:25.725Z,46.69
2023-04-18T02:02:53.563Z,46.70
2023-04-18T02:05:22.211Z,46.72
2023-04-18T02:07:50.396Z,46.77
2023-04-18T02:10:19.265Z,46.73
2023-04-18T02:12:47.101Z,46.74
2023-04-18T02:15:14.895Z,46.70
2023-04-18T02:17:42.690Z,46.84
2023-04-18T02:20:11.028Z,46.70
2023-04-18T02:22:39.439Z,46.76
2023-04-18T02:25:07.935Z,46.81
2023-04-18T02:27:35.731Z,46.82
2023-04-18T02:30:03.638Z,46.69
2023-04-18T02:32:34.754Z,46.88
2023-04-18T02:35:02.573Z,46.79
2023-04-18T02:37:30.387Z,46.72
2023-04-18T02:39:58.236Z,46.72
2023-04-18T02:42:30.844Z,46.71
2023-04-18T02:44:58.779Z,46.73
2023-04-18T02:47:27.127Z,46.75
2023-04-18T02:49:54.911Z,46.73
2023-04-18T02:52:22.971Z,46.86
2023-04-18T02:54:50.734Z,46.92
2023-04-18T02:57:23.795Z,46.90
2023-04-18T02:59:54.090Z,46.95
2023-04-18T03:02:41.918Z,46.68
2023-04-18T03:05:42.755Z,46.97
2023-04-18T03:08:10.595Z,46.56
2023-04-18T03:10:40.032Z,46.67
2023-04-18T03:13:08.475Z,46.66
2023-04-18T03:15:36.884Z,46.70
2023-04-18T03:18:05.593Z,46.73
2023-04-18T03:20:37.491Z,46.73
2023-04-18T03:23:07.964Z,46.73
2023-04-18T03:25:36.361Z,46.58
2023-04-18T03:28:05.403Z,46.66
2023-04-18T03:30:34.704Z,46.65
2023-04-18T03:33:05.148Z,46.64
2023-04-18T03:35:33.105Z,46.42
2023-04-18T03:38:01.156Z,46.48
2023-04-18T03:40:31.993Z,46.48
2023-04-18T03:43:06.264Z,46.51
2023-04-18T03:45:33.993Z,46.34
2023-04-18T03:48:02.083Z,46.46
2023-04-18T03:50:31.576Z,46.39
2023-04-18T03:52:59.609Z,46.42
2023-04-18T03:55:30.273Z,46.34
2023-04-18T03:57:59.173Z,46.48
2023-04-18T04:00:30.187Z,46.40
2023-04-18T04:03:07.544Z,46.35
2023-04-18T04:05:37.223Z,46.35
2023-04-18T04:08:11.588Z,46.29
2023-04-18T04:10:39.493Z,46.29
2023-04-18T04:13:07.290Z,46.42
2023-04-18T04:15:38.918Z,46.40
2023-04-18T04:18:09.130Z,46.28
2023-04-18T04:20:40.085Z,46.22
2023-04-18T04:23:15.457Z,46.25
2023-04-18T04:25:46.379Z,46.26
2023-04-18T04:28:25.999Z,46.11
2023-04-18T04:30:59.498Z,46.31
2023-04-18T04:33:33.341Z,46.17
2023-04-18T04:36:06.767Z,46.26
2023-04-18T04:38:38.218Z,46.40
2023-04-18T04:41:08.092Z,46.21
2023-04-18T04:43:36.998Z,46.49
2023-04-18T04:46:05.495Z,46.25
2023-04-18T04:48:33.773Z,46.48
2023-04-18T04:51:05.506Z,46.80
2023-04-18T04:53:33.350Z,46.68
2023-04-18T04:56:04.783Z,46.48
2023-04-18T04:58:34.199Z,47.00
2023-04-18T05:01:20.403Z,47.05
2023-04-18T05:03:48.505Z,46.74
2023-04-18T05:06:20.668Z,47.10
2023-04-18T05:08:49.605Z,47.06
2023-04-18T05:11:17.909Z,46.81
2023-04-18T05:13:45.707Z,47.02
2023-04-18T05:16:14.408Z,47.06
2023-04-18T05:18:42.231Z,47.11
2023-04-18T05:21:09.881Z,47.06
2023-04-18T05:23:37.686Z,47.16
2023-04-18T05:26:06.266Z,47.34
2023-04-18T05:28:34.026Z,47.35
2023-04-18T05:31:01.781Z,47.26
2023-04-18T05:33:30.782Z,47.36
2023-04-18T05:36:00.654Z,47.20
2023-04-18T05:38:28.313Z,47.19
2023-04-18T05:40:57.055Z,47.24
2023-04-18T05:43:24.740Z,47.28
2023-04-18T05:45:52.883Z,47.43
2023-04-18T05:48:21.474Z,47.23
2023-04-18T05:50:49.300Z,47.38
2023-04-18T05:53:17.080Z,47.44
2023-04-18T05:55:46.520Z,47.31
2023-04-18T05:58:14.798Z,47.31
2023-04-18T06:00:44.960Z,47.39
2023-04-18T06:03:14.816Z,47.22
2023-04-18T06:05:42.929Z,47.24
2023-04-18T06:08:10.810Z,47.30
2023-04-18T06:10:39.419Z,47.36
2023-04-18T06:13:07.819Z,47.48
2023-04-18T06:15:37.617Z,47.38
2023-04-18T06:18:05.598Z,47.47
2023-04-18T06:20:33.376Z,47.48
2023-04-18T06:23:01.082Z,47.36
2023-04-18T06:25:30.776Z,47.46
2023-04-18T06:27:58.487Z,47.39
2023-04-18T06:30:26.297Z,47.58
2023-04-18T06:32:55.936Z,47.38
2023-04-18T06:35:26.618Z,47.38
2023-04-18T06:37:54.535Z,47.34
2023-04-18T06:40:25.392Z,47.52
2023-04-18T06:42:53.200Z,47.68
2023-04-18T06:45:20.961Z,47.54
2023-04-18T06:47:51.508Z,47.74
2023-04-18T06:50:19.586Z,47.70
2023-04-18T06:52:47.326Z,47.61
2023-04-18T06:55:15.204Z,47.90
2023-04-18T06:57:43.500Z,48.07
2023-04-18T07:00:18.280Z,48.01
2023-04-18T07:02:46.468Z,48.03
2023-04-18T07:05:14.569Z,47.94
2023-04-18T07:07:42.527Z,47.83
2023-04-18T07:10:11.463Z,48.01
2023-04-18T07:12:39.393Z,48.07
2023-04-18T07:15:10.125Z,48.10
2023-04-18T07:17:40.152Z,48.09
2023-04-18T07:20:14.239Z,48.13
2023-04-18T07:22:44.914Z,47.82
2023-04-18T07:25:14.296Z,47.86
2023-04-18T07:27:44.506Z,47.90
2023-04-18T07:30:13.552Z,47.96
2023-04-18T07:32:41.343Z,47.93
2023-04-18T07:35:10.877Z,47.87
2023-04-18T07:37:40.972Z,47.90
2023-04-18T07:40:09.374Z,47.82
2023-04-18T07:42:37.192Z,47.76
2023-04-18T07:45:05.824Z,47.81
2023-04-18T07:47:35.318Z,47.74
2023-04-18T07:50:05.827Z,47.67
2023-04-18T07:52:34.126Z,47.67
2023-04-18T07:55:09.317Z,47.55
2023-04-18T07:57:40.843Z,47.56
2023-04-18T08:00:09.501Z,47.81
2023-04-18T08:02:44.656Z,47.97
2023-04-18T08:05:19.817Z,47.64
2023-04-18T08:07:49.667Z,47.41
2023-04-18T08:10:17.711Z,47.31
2023-04-18T08:12:45.608Z,47.24
2023-04-18T08:15:13.429Z,47.26
2023-04-18T08:17:43.834Z,47.29
2023-04-18T08:20:13.642Z,47.24
2023-04-18T08:22:57.671Z,47.33
2023-04-18T08:25:31.627Z,47.17
2023-04-18T08:28:01.413Z,47.09
2023-04-18T08:30:29.346Z,47.13
2023-04-18T08:32:57.123Z,47.03
2023-04-18T08:35:28.234Z,46.93
2023-04-18T08:37:57.573Z,47.13
2023-04-18T08:40:25.537Z,47.21
2023-04-18T08:42:54.821Z,46.94
2023-04-18T08:45:22.516Z,46.69
2023-04-18T08:47:52.409Z,47.04
2023-04-18T08:50:23.165Z,46.73
2023-04-18T08:52:52.087Z,46.82
2023-04-18T08:55:22.290Z,46.76
2023-04-18T08:57:53.969Z,46.89
2023-04-18T09:00:28.602Z,46.88
2023-04-18T09:02:58.616Z,46.39
2023-04-18T09:05:29.147Z,46.39
2023-04-18T09:07:57.493Z,46.34
2023-04-18T09:10:36.490Z,46.02
2023-04-18T09:13:07.782Z,46.07
2023-04-18T09:15:37.474Z,46.09
2023-04-18T09:18:12.289Z,45.83
2023-04-18T09:20:42.127Z,45.90
2023-04-18T09:23:25.548Z,45.73
2023-04-18T09:25:53.760Z,45.73
2023-04-18T09:28:31.773Z,45.52
2023-04-18T09:31:19.354Z,45.57
2023-04-18T09:33:56.714Z,45.31
2023-04-18T09:36:27.686Z,45.46
2023-04-18T09:38:57.261Z,45.57
2023-04-18T09:41:25.248Z,45.27
2023-04-18T09:44:14.401Z,45.21
2023-04-18T09:46:47.213Z,45.13
2023-04-18T09:49:18.872Z,44.94
2023-04-18T09:51:46.867Z,45.25
2023-04-18T09:54:17.025Z,45.12
2023-04-18T09:56:46.553Z,45.03
2023-04-18T09:59:27.513Z,44.95
2023-04-18T10:01:58.211Z,45.14
2023-04-18T10:04:29.193Z,44.95
2023-04-18T10:06:58.988Z,44.91
2023-04-18T10:09:33.139Z,44.78
2023-04-18T10:12:02.623Z,44.72
2023-04-18T10:14:33.881Z,44.74
2023-04-18T10:17:02.296Z,44.94
2023-04-18T10:19:30.297Z,44.96
2023-04-18T10:22:01.483Z,44.74
2023-04-18T10:24:57.876Z,44.84
2023-04-18T10:27:47.491Z,44.68
2023-04-18T10:30:20.820Z,44.92
2023-04-18T10:32:54.921Z,44.93
2023-04-18T10:35:24.756Z,44.96
2023-04-18T10:37:58.950Z,45.00
2023-04-18T10:40:35.191Z,44.74
2023-04-18T10:43:04.328Z,44.63
2023-04-18T10:45:36.300Z,44.54
2023-04-18T10:48:31.589Z,44.33
2023-04-18T10:51:20.890Z,44.21
2023-04-18T10:53:53.489Z,44.20
2023-04-18T10:56:21.864Z,44.16
2023-04-18T10:58:54.506Z,43.90
2023-04-18T11:01:31.211Z,43.80
2023-04-18T11:04:01.900Z,43.77
2023-04-18T11:06:31.245Z,43.71
2023-04-18T11:09:14.546Z,43.29
2023-04-18T11:11:43.343Z,43.50
2023-04-18T11:14:11.775Z,43.57
2023-04-18T11:16:40.499Z,43.26
2023-04-18T11:19:25.207Z,43.11
2023-04-18T11:22:04.245Z,43.30
2023-04-18T11:24:31.988Z,43.53
2023-04-18T11:27:01.799Z,43.00
2023-04-18T11:29:31.471Z,42.88
2023-04-18T11:31:59.245Z,42.88
2023-04-18T11:34:31.525Z,42.80
2023-04-18T11:37:01.664Z,42.52
2023-04-18T11:39:31.721Z,42.67
2023-04-18T11:42:01.853Z,42.37
2023-04-18T11:44:33.168Z,42.31
2023-04-18T11:47:02.790Z,42.44
2023-04-18T11:49:32.786Z,42.17
2023-04-18T11:52:01.556Z,42.16
2023-04-18T11:54:39.905Z,41.86
2023-04-18T11:57:26.401Z,41.81
2023-04-18T11:59:57.870Z,41.83
2023-04-18T12:02:45.363Z,41.68
2023-04-18T12:05:26.516Z,41.70
2023-04-18T12:07:54.728Z,41.83
2023-04-18T12:10:29.117Z,41.62
2023-04-18T12:13:01.003Z,41.12
2023-04-18T12:15:29.806Z,41.55
2023-04-18T12:18:02.530Z,41.49
2023-04-18T12:20:54.135Z,41.38
2023-04-18T12:23:40.325Z,41.20
2023-04-18T12:26:14.021Z,41.39
2023-04-18T12:28:46.476Z,41.12
2023-04-18T12:31:16.566Z,41.27
2023-04-18T12:33:47.251Z,41.40
2023-04-18T12:36:15.161Z,41.40
2023-04-18T12:38:45.709Z,41.49
2023-04-18T12:41:13.496Z,41.57
2023-04-18T12:43:41.246Z,41.40
2023-04-18T12:46:09.789Z,41.45
2023-04-18T12:48:37.500Z,41.59
2023-04-18T12:51:06.878Z,40.96
2023-04-18T12:53:36.530Z,41.40
2023-04-18T12:56:05.122Z,41.55
2023-04-18T12:58:34.535Z,41.49
2023-04-18T13:01:02.224Z,41.09
2023-04-18T13:03:31.941Z,40.59
2023-04-18T13:06:01.222Z,40.77
2023-04-18T13:08:30.809Z,40.74
2023-04-18T13:10:58.947Z,41.04
2023-04-18T13:13:28.674Z,40.67
2023-04-18T13:15:56.665Z,40.68
2023-04-18T13:18:24.509Z,40.56
2023-04-18T13:20:52.539Z,40.41
2023-04-18T13:23:26.768Z,40.29
2023-04-18T13:25:55.078Z,40.44
2023-04-18T13:28:22.799Z,40.56
2023-04-18T13:30:52.731Z,40.45
2023-04-18T13:33:20.552Z,39.97
2023-04-18T13:35:48.468Z,39.74
2023-04-18T13:38:16.332Z,39.91
2023-04-18T13:40:43.995Z,39.82
2023-04-18T13:43:13.027Z,39.60
2023-04-18T13:45:47.353Z,40.00
2023-04-18T13:48:16.355Z,39.57
2023-04-18T13:50:45.716Z,39.82
2023-04-18T13:53:16.256Z,39.67
2023-04-18T13:55:46.736Z,39.83
2023-04-18T13:58:15.628Z,39.61
2023-04-18T14:00:45.046Z,39.33
2023-04-18T14:03:13.138Z,39.75
2023-04-18T14:05:40.928Z,39.41
2023-04-18T14:08:10.627Z,39.78
2023-04-18T14:10:38.796Z,39.61
2023-04-18T14:13:07.255Z,39.50
2023-04-18T14:15:35.571Z,39.58
2023-04-18T14:18:07.316Z,39.50
2023-04-18T14:20:39.829Z,39.55
2023-04-18T14:23:09.564Z,39.70
2023-04-18T14:25:39.018Z,39.63
2023-04-18T14:28:09.714Z,39.65
2023-04-18T14:30:41.480Z,39.68
2023-04-18T14:33:10.063Z,39.45
2023-04-18T14:35:37.912Z,39.14
2023-04-18T14:38:06.413Z,39.02
2023-04-18T14:40:34.347Z,39.21
2023-04-18T14:43:02.403Z,39.03
2023-04-18T14:45:33.958Z,39.13
2023-04-18T14:48:03.808Z,38.94
2023-04-18T14:50:31.740Z,38.89
2023-04-18T14:52:59.496Z,38.71
2023-04-18T14:55:27.307Z,38.75
2023-04-18T14:57:55.045Z,38.66
2023-04-18T15:00:22.804Z,38.88
2023-04-18T15:02:52.704Z,38.80
2023-04-18T15:05:25.854Z,38.85
2023-04-18T15:07:53.701Z,39.00
2023-04-18T15:10:22.467Z,38.83
2023-04-18T15:12:51.215Z,38.47
2023-04-18T15:15:19.655Z,38.52
2023-04-18T15:17:47.412Z,38.41
2023-04-18T15:20:16.504Z,38.28
2023-04-18T15:22:44.181Z,38.48
2023-04-18T15:25:16.230Z,38.48
2023-04-18T15:27:43.987Z,38.60
2023-04-18T15:30:12.237Z,38.49
2023-04-18T15:35:10.758Z,38.80
2023-04-18T15:37:38.518Z,38.52
2023-04-18T15:40:09.568Z,38.79
2023-04-18T15:42:39.189Z,38.49
2023-04-18T15:45:08.007Z,38.86
2023-04-18T15:47:36.170Z,38.83
2023-04-18T15:50:05.004Z,38.75
2023-04-18T15:52:34.914Z,38.65
2023-04-18T15:55:03.333Z,38.56
2023-04-18T15:57:32.064Z,38.45
2023-04-18T16:00:00.360Z,38.40
2023-04-18T16:02:28.144Z,38.75
2023-04-18T16:04:55.939Z,38.59
2023-04-18T16:07:23.685Z,38.45
2023-04-18T16:09:51.681Z,38.57
2023-04-18T16:12:19.396Z,38.87
2023-04-18T16:14:48.805Z,38.79
2023-04-18T16:17:18.113Z,38.92
2023-04-18T16:19:46.152Z,38.78
2023-04-18T16:22:14.993Z,38.78
2023-04-18T16:24:42.719Z,39.02
2023-04-18T16:27:10.559Z,38.64
2023-04-18T16:29:38.293Z,38.98
2023-04-18T16:32:09.133Z,39.03
2023-04-18T16:34:36.892Z,38.81
2023-04-18T16:37:04.660Z,39.15
2023-04-18T16:39:32.500Z,39.17
2023-04-18T16:42:00.330Z,38.91
2023-04-18T16:44:28.097Z,39.00
2023-04-18T16:46:57.414Z,39.18
2023-04-18T16:49:26.074Z,38.92
2023-04-18T16:51:53.911Z,39.22
2023-04-18T16:54:21.672Z,38.89
2023-04-18T16:56:49.401Z,38.78
2023-04-18T16:59:17.730Z,38.81
2023-04-18T17:01:45.590Z,38.63
2023-04-18T17:04:16.193Z,38.67
2023-04-18T17:06:44.624Z,38.97
2023-04-18T17:09:14.521Z,38.80
2023-04-18T17:11:42.837Z,38.83
2023-04-18T17:14:11.539Z,38.66
2023-04-18T17:16:41.611Z,39.01
2023-04-18T17:19:10.145Z,38.96
2023-04-18T17:21:38.381Z,38.94
2023-04-18T17:24:07.574Z,39.18
2023-04-18T17:26:38.236Z,39.22
2023-04-18T17:29:06.306Z,39.23
2023-04-18T17:31:34.216Z,39.25
2023-04-18T17:34:03.616Z,39.05
2023-04-18T17:36:31.473Z,39.11
2023-04-18T17:39:07.200Z,39.21
2023-04-18T17:41:38.179Z,39.38
2023-04-18T17:44:10.393Z,39.46
2023-04-18T17:46:38.217Z,39.51
2023-04-18T17:49:06.384Z,39.33
2023-04-18T17:51:34.217Z,39.58
2023-04-18T17:54:02.184Z,39.63
2023-04-18T17:56:31.430Z,39.63
2023-04-18T17:58:59.168Z,39.60
2023-04-18T18:01:30.185Z,39.63
2023-04-18T18:03:58.207Z,39.65
2023-04-18T18:06:29.525Z,39.81
2023-04-18T18:08:59.286Z,39.84
2023-04-18T18:11:27.681Z,39.75
2023-04-18T18:13:57.314Z,39.62
2023-04-18T18:16:25.163Z,39.74
2023-04-18T18:18:53.010Z,39.72
2023-04-18T18:21:20.744Z,39.94
2023-04-18T18:23:48.466Z,39.89
2023-04-18T18:26:16.361Z,39.86
2023-04-18T18:28:44.089Z,39.93
2023-04-18T18:31:11.909Z,40.09
2023-04-18T18:33:39.756Z,40.12
2023-04-18T18:36:07.557Z,40.25
2023-04-18T18:38:36.705Z,40.18
2023-04-18T18:41:04.849Z,40.10
2023-04-18T18:43:32.724Z,40.21
2023-04-18T18:46:00.833Z,40.24
2023-04-18T18:48:28.744Z,40.31
2023-04-18T18:50:57.250Z,40.32
2023-04-18T18:53:25.163Z,40.43
2023-04-18T18:55:52.952Z,40.54
2023-04-18T18:58:20.749Z,40.56
2023-04-18T19:00:48.691Z,40.75
2023-04-18T19:03:21.053Z,40.69
2023-04-18T19:05:56.598Z,40.97
2023-04-18T19:08:24.366Z,41.00
2023-04-18T19:10:53.857Z,41.08
2023-04-18T19:13:25.809Z,41.16
2023-04-18T19:15:53.635Z,41.36
2023-04-18T19:18:21.404Z,41.21
2023-04-18T19:20:50.994Z,41.64
2023-04-18T19:23:19.390Z,41.54
2023-04-18T19:25:47.276Z,41.53
2023-04-18T19:28:15.684Z,41.58
2023-04-18T19:30:43.919Z,41.78
2023-04-18T19:33:13.577Z,41.79
2023-04-18T19:35:43.461Z,41.86
2023-04-18T19:38:11.296Z,41.89
2023-04-18T19:40:39.150Z,41.91
2023-04-18T19:43:06.912Z,41.96
2023-04-18T19:45:34.777Z,42.02
2023-04-18T19:48:02.712Z,41.95
2023-04-18T19:50:30.645Z,42.19
2023-04-18T19:52:58.375Z,42.29
2023-04-18T19:55:27.510Z,42.41
2023-04-18T19:57:58.940Z,42.54
2023-04-18T20:00:26.657Z,42.76
2023-04-18T20:02:59.451Z,42.49
2023-04-18T20:05:27.472Z,42.55
2023-04-18T20:07:55.253Z,42.57
2023-04-18T20:10:23.189Z,42.53
2023-04-18T20:12:51.394Z,42.68
2023-04-18T20:15:19.076Z,42.73
2023-04-18T20:17:46.964Z,42.77
2023-04-18T20:20:14.689Z,42.75
2023-04-18T20:22:44.659Z,42.82
2023-04-18T20:25:12.613Z,42.82
2023-04-18T20:27:40.513Z,42.84
2023-04-18T20:30:08.896Z,42.96
2023-04-18T20:32:36.846Z,42.94
2023-04-18T20:35:05.214Z,42.92
2023-04-18T20:37:36.669Z,43.03
2023-04-18T20:40:07.109Z,43.12
2023-04-18T20:42:34.971Z,43.17
2023-04-18T20:45:03.862Z,43.31
2023-04-18T20:47:33.872Z,43.24
2023-04-18T20:50:01.626Z,43.29
2023-04-18T20:52:29.452Z,43.42
2023-04-18T20:54:58.421Z,43.44
2023-04-18T20:57:26.300Z,43.54
2023-04-18T20:59:54.115Z,43.50
2023-04-18T21:02:22.030Z,43.57
2023-04-18T21:04:49.834Z,43.51
2023-04-18T21:07:20.038Z,43.71
2023-04-18T21:09:47.691Z,43.68
2023-04-18T21:12:15.663Z,43.54
2023-04-18T21:14:43.568Z,43.65
2023-04-18T21:17:16.902Z,43.83
2023-04-18T21:19:48.592Z,43.73
2023-04-18T21:22:17.696Z,43.80
2023-04-18T21:24:46.773Z,43.77
2023-04-18T21:27:15.870Z,44.00
2023-04-18T21:29:43.721Z,43.85
2023-04-18T21:32:11.385Z,44.05
2023-04-18T21:34:39.119Z,43.98
2023-04-18T21:37:06.868Z,44.13
2023-04-18T21:39:34.649Z,44.00
2023-04-18T21:42:03.037Z,44.11
2023-04-18T21:44:31.128Z,44.03
2023-04-18T21:46:59.043Z,43.96
2023-04-18T21:49:26.832Z,43.98
2023-04-18T21:51:55.019Z,44.21
2023-04-18T21:54:22.780Z,44.13
2023-04-18T21:56:50.505Z,44.11
2023-04-18T21:59:18.194Z,44.28
2023-04-18T22:01:45.977Z,44.21
2023-04-18T22:04:14.625Z,44.32
2023-04-18T22:06:43.263Z,44.47
2023-04-18T22:09:11.749Z,44.54
2023-04-18T22:11:39.523Z,44.53
2023-04-18T22:14:07.494Z,44.59
2023-04-18T22:16:35.307Z,44.41
2023-04-18T22:19:04.012Z,44.50
2023-04-18T22:21:31.808Z,44.60
2023-04-18T22:23:59.541Z,44.47
2023-04-18T22:26:27.244Z,44.42
2023-04-18T22:28:55.054Z,44.58
2023-04-18T22:31:22.827Z,44.54
2023-04-18T22:33:50.707Z,44.64
2023-04-18T22:36:18.428Z,44.62
2023-04-18T22:38:46.188Z,44.63
2023-04-18T22:41:14.028Z,44.53
2023-04-18T22:43:41.766Z,44.60
2023-04-18T22:46:09.492Z,44.77
2023-04-18T22:48:38.403Z,44.91
2023-04-18T22:51:06.258Z,44.93
2023-04-18T22:53:33.930Z,44.82
2023-04-18T22:56:01.709Z,44.81
2023-04-18T22:58:29.693Z,44.94
2023-04-18T23:00:57.499Z,44.91
2023-04-18T23:03:25.326Z,44.94
2023-04-18T23:05:53.086Z,45.04
2023-04-18T23:08:22.552Z,45.12
2023-04-18T23:10:50.474Z,45.07
2023-04-18T23:13:18.237Z,44.98
2023-04-18T23:15:45.949Z,45.08
2023-04-18T23:18:13.779Z,45.15
2023-04-18T23:20:41.552Z,45.12
2023-04-18T23:23:09.340Z,45.26
2023-04-18T23:25:37.080Z,45.13
2023-04-18T23:28:05.151Z,45.06
2023-04-18T23:30:36.920Z,45.08
2023-04-18T23:33:04.769Z,45.04
2023-04-18T23:35:32.560Z,44.99
2023-04-18T23:38:00.273Z,45.23
2023-04-18T23:40:28.433Z,45.28
2023-04-18T23:42:56.162Z,45.15
2023-04-18T23:45:24.337Z,45.20
2023-04-18T23:47:52.483Z,45.26
2023-04-18T23:50:20.788Z,45.18
2023-04-18T23:52:48.441Z,45.27
2023-04-18T23:55:16.664Z,45.16
2023-04-18T23:57:44.435Z,45.37
